createdAt,value
2023-03-30T00:00:48.460Z,3.45
2023-03-30T00:08:32.637Z,3.17
2023-03-30T00:11:52.044Z,3.72
2023-03-30T00:14:51.267Z,4.18
2023-03-30T00:17:47.167Z,4.10
2023-03-30T00:20:50.312Z,4.40
2023-03-30T00:23:48.878Z,4.53
2023-03-30T00:26:40.552Z,4.63
2023-03-30T00:29:40.904Z,4.40
2023-03-30T00:32:38.592Z,4.20
2023-03-30T00:35:45.983Z,3.90
2023-03-30T00:38:40.947Z,4.22
2023-03-30T00:41:43.155Z,3.30
2023-03-30T00:45:29.762Z,3.45
2023-03-30T00:48:25.249Z,3.85
2023-03-30T00:51:17.873Z,4.25
2023-03-30T00:54:26.349Z,4.22
2023-03-30T01:01:25.949Z,5.30
2023-03-30T01:04:17.436Z,2.83
2023-03-30T01:07:13.518Z,3.30
2023-03-30T01:10:04.785Z,4.22
2023-03-30T01:12:57.177Z,5.65
2023-03-30T01:16:03.161Z,4.32
2023-03-30T01:19:16.564Z,3.45
2023-03-30T01:22:54.415Z,5.87
2023-03-30T01:26:36.615Z,4.13
2023-03-30T01:30:07.150Z,3.45
2023-03-30T01:33:59.089Z,3.25
2023-03-30T01:37:53.493Z,3.13
2023-03-30T01:40:58.154Z,3.10
2023-03-30T01:44:05.497Z,4.07
2023-03-30T01:47:07.143Z,4.10
2023-03-30T01:50:05.087Z,2.90
2023-03-30T01:53:02.514Z,3.05
2023-03-30T01:56:07.151Z,2.95
2023-03-30T01:59:04.105Z,3.42
2023-03-30T02:02:03.627Z,3.78
2023-03-30T02:04:57.908Z,3.17
2023-03-30T02:07:55.492Z,2.55
2023-03-30T02:10:50.090Z,3.53
2023-03-30T02:13:43.769Z,3.70
2023-03-30T02:16:42.113Z,3.35
2023-03-30T02:19:32.213Z,2.72
2023-03-30T02:22:24.036Z,2.83
2023-03-30T02:25:16.326Z,2.65
2023-03-30T02:28:05.981Z,2.50
2023-03-30T02:30:59.781Z,3.03
2023-03-30T02:34:15.752Z,3.25
2023-03-30T02:37:37.753Z,2.70
2023-03-30T02:40:44.259Z,2.50
2023-03-30T02:43:47.082Z,2.75
2023-03-30T02:47:07.234Z,3.40
2023-03-30T02:50:06.336Z,2.75
2023-03-30T02:53:07.974Z,3.22
2023-03-30T02:56:13.862Z,2.90
2023-03-30T02:59:11.095Z,2.75
2023-03-30T03:02:13.988Z,3.90
2023-03-30T03:05:13.321Z,3.13
2023-03-30T03:08:15.621Z,3.40
2023-03-30T03:11:14.686Z,2.90
2023-03-30T03:14:13.230Z,3.63
2023-03-30T03:17:22.565Z,3.35
2023-03-30T03:20:16.089Z,3.22
2023-03-30T03:23:13.441Z,2.72
2023-03-30T03:26:12.278Z,3.25
2023-03-30T03:29:04.277Z,2.60
2023-03-30T03:31:54.256Z,2.95
2023-03-30T03:34:48.339Z,3.03
2023-03-30T03:37:39.208Z,2.97
2023-03-30T03:40:30.297Z,3.20
2023-03-30T03:43:27.566Z,3.15
2023-03-30T03:46:17.768Z,3.58
2023-03-30T03:49:09.887Z,2.85
2023-03-30T03:52:05.016Z,3.08
2023-03-30T03:54:55.192Z,3.25
2023-03-30T03:57:49.905Z,3.03
2023-03-30T04:00:41.521Z,2.72
2023-03-30T04:03:36.793Z,3.03
2023-03-30T04:06:31.150Z,3.17
2023-03-30T04:09:35.884Z,3.33
2023-03-30T04:12:27.910Z,2.97
2023-03-30T04:15:22.394Z,2.78
2023-03-30T04:18:18.260Z,2.97
2023-03-30T04:21:14.324Z,3.05
2023-03-30T04:24:13.115Z,3.63
2023-03-30T04:27:06.284Z,4.15
2023-03-30T04:29:59.915Z,3.45
2023-03-30T04:33:04.088Z,3.13
2023-03-30T04:35:55.409Z,3.83
2023-03-30T04:38:45.917Z,4.18
2023-03-30T04:41:36.241Z,4.72
2023-03-30T04:44:27.035Z,3.65
2023-03-30T04:47:18.107Z,3.25
2023-03-30T04:50:20.738Z,3.65
2023-03-30T04:53:15.811Z,4.03
2023-03-30T04:56:21.082Z,4.70
2023-03-30T04:59:19.253Z,3.78
2023-03-30T05:02:12.418Z,4.25
2023-03-30T05:05:04.797Z,3.13
2023-03-30T05:08:13.045Z,4.20
2023-03-30T05:11:11.884Z,3.65
2023-03-30T05:14:04.608Z,4.55
2023-03-30T05:19:50.460Z,3.45
2023-03-30T05:22:40.630Z,4.60
2023-03-30T05:25:38.553Z,3.80
2023-03-30T05:28:32.783Z,3.42
2023-03-30T05:31:30.324Z,3.95
2023-03-30T05:34:24.194Z,3.20
2023-03-30T05:37:23.889Z,4.07
2023-03-30T05:40:14.195Z,3.38
2023-03-30T05:43:04.682Z,2.97
2023-03-30T05:45:53.911Z,3.78
2023-03-30T05:48:51.560Z,3.20
2023-03-30T05:51:49.302Z,2.97
2023-03-30T05:54:50.502Z,3.60
2023-03-30T05:57:44.906Z,3.15
2023-03-30T06:00:37.163Z,3.90
2023-03-30T06:03:31.612Z,4.05
2023-03-30T06:06:21.949Z,3.20
2023-03-30T06:09:13.478Z,3.30
2023-03-30T06:12:35.223Z,3.33
2023-03-30T06:15:27.736Z,4.63
2023-03-30T06:18:16.102Z,3.97
2023-03-30T06:21:09.294Z,3.28
2023-03-30T06:24:00.891Z,4.07
2023-03-30T06:26:52.606Z,4.25
2023-03-30T06:29:48.806Z,4.35
2023-03-30T06:32:46.581Z,3.60
2023-03-30T06:35:50.665Z,3.90
2023-03-30T06:45:17.097Z,4.18
2023-03-30T06:48:13.525Z,4.47
2023-03-30T06:51:14.402Z,4.72
2023-03-30T06:54:22.212Z,5.13
2023-03-30T06:57:20.644Z,4.72
2023-03-30T07:00:40.251Z,4.35
2023-03-30T07:03:36.711Z,5.07
2023-03-30T07:06:37.675Z,5.07
2023-03-30T07:09:34.318Z,4.13
2023-03-30T07:12:24.870Z,4.68
2023-03-30T07:15:27.112Z,4.60
2023-03-30T07:18:20.148Z,4.40
2023-03-30T07:21:11.565Z,4.35
2023-03-30T07:24:31.338Z,5.22
2023-03-30T07:27:29.263Z,3.95
2023-03-30T07:30:22.230Z,4.53
2023-03-30T07:33:14.394Z,4.43
2023-03-30T07:36:13.163Z,4.68
2023-03-30T07:39:09.291Z,4.30
2023-03-30T07:41:59.066Z,3.88
2023-03-30T07:44:46.573Z,4.57
2023-03-30T07:47:35.773Z,4.22
2023-03-30T07:50:25.955Z,4.60
2023-03-30T07:53:16.899Z,3.72
2023-03-30T07:56:07.682Z,4.32
2023-03-30T07:58:57.149Z,4.25
2023-03-30T08:01:50.416Z,4.05
2023-03-30T08:07:27.593Z,4.70
2023-03-30T08:10:16.755Z,4.00
2023-03-30T08:13:04.584Z,4.30
2023-03-30T08:15:54.302Z,4.03
2023-03-30T08:18:42.420Z,5.18
2023-03-30T08:21:30.256Z,5.88
2023-03-30T08:24:18.065Z,4.15
2023-03-30T08:27:07.118Z,3.90
2023-03-30T08:29:55.145Z,5.32
2023-03-30T08:32:42.625Z,5.03
2023-03-30T08:35:30.636Z,5.03
2023-03-30T08:38:18.981Z,4.80
2023-03-30T08:41:44.494Z,5.07
2023-03-30T08:44:39.902Z,4.30
2023-03-30T08:47:39.576Z,4.25
2023-03-30T08:50:34.907Z,4.32
2023-03-30T08:53:22.889Z,4.50
2023-03-30T08:56:20.748Z,4.60
2023-03-30T08:59:27.017Z,4.55
2023-03-30T09:02:22.170Z,4.50
2023-03-30T09:05:22.615Z,4.70
2023-03-30T09:08:20.147Z,4.47
2023-03-30T09:11:16.127Z,4.78
2023-03-30T09:14:11.135Z,4.20
2023-03-30T09:17:08.628Z,5.22
2023-03-30T09:20:03.383Z,4.47
2023-03-30T09:22:53.697Z,4.40
2023-03-30T09:25:47.694Z,4.30
2023-03-30T09:28:43.167Z,4.80
2023-03-30T09:31:39.951Z,5.05
2023-03-30T09:34:35.873Z,4.05
2023-03-30T09:37:27.235Z,4.90
2023-03-30T09:40:38.794Z,4.20
2023-03-30T09:43:35.250Z,4.68
2023-03-30T09:46:22.564Z,3.92
2023-03-30T09:49:16.644Z,4.68
2023-03-30T09:52:08.359Z,5.43
2023-03-30T09:54:57.799Z,5.35
2023-03-30T09:57:45.209Z,5.35
2023-03-30T10:00:35.478Z,5.90
2023-03-30T10:03:24.859Z,5.70
2023-03-30T10:06:18.157Z,6.03
2023-03-30T10:09:13.095Z,5.40
2023-03-30T10:12:02.507Z,5.20
2023-03-30T10:14:56.815Z,4.45
2023-03-30T10:17:48.788Z,5.45
2023-03-30T10:20:39.660Z,5.63
2023-03-30T10:23:33.502Z,5.43
2023-03-30T10:26:24.143Z,4.95
2023-03-30T10:29:18.710Z,5.55
2023-03-30T10:32:17.042Z,5.38
2023-03-30T10:35:11.495Z,5.28
2023-03-30T10:38:01.682Z,4.25
2023-03-30T10:40:55.721Z,7.28
2023-03-30T10:43:44.945Z,5.18
2023-03-30T10:46:34.312Z,5.53
2023-03-30T10:49:49.535Z,6.60
2023-03-30T10:52:59.466Z,5.38
2023-03-30T10:56:00.119Z,5.25
2023-03-30T10:59:16.323Z,6.55
2023-03-30T11:02:26.178Z,4.63
2023-03-30T11:05:18.297Z,4.95
2023-03-30T11:08:08.165Z,6.82
2023-03-30T11:10:59.251Z,4.43
2023-03-30T11:13:52.173Z,4.82
2023-03-30T11:16:49.272Z,6.07
2023-03-30T11:19:46.173Z,5.30
2023-03-30T11:22:41.239Z,9.20
2023-03-30T11:25:31.891Z,11.15
2023-03-30T11:28:26.920Z,9.02
2023-03-30T11:31:26.775Z,6.65
2023-03-30T11:34:25.846Z,8.45
2023-03-30T11:37:27.163Z,5.28
2023-03-30T11:40:19.439Z,8.38
2023-03-30T11:43:09.694Z,5.63
2023-03-30T11:46:05.140Z,4.10
2023-03-30T11:49:22.326Z,3.78
2023-03-30T11:52:22.585Z,4.03
2023-03-30T11:55:24.745Z,4.22
2023-03-30T11:58:22.217Z,6.75
2023-03-30T12:01:28.299Z,8.88
2023-03-30T12:04:21.923Z,8.05
2023-03-30T12:07:20.408Z,8.40
2023-03-30T12:10:17.046Z,6.18
2023-03-30T12:13:05.036Z,5.70
2023-03-30T12:15:59.696Z,5.65
2023-03-30T12:19:08.730Z,10.45
2023-03-30T12:22:01.847Z,10.85
2023-03-30T12:27:59.724Z,8.20
2023-03-30T12:30:56.481Z,7.53
2023-03-30T12:33:49.472Z,9.05
2023-03-30T12:36:39.947Z,8.88
2023-03-30T12:39:31.240Z,9.50
2023-03-30T12:42:34.240Z,6.18
2023-03-30T12:45:31.996Z,4.90
2023-03-30T12:48:29.964Z,3.92
2023-03-30T12:51:31.925Z,4.40
2023-03-30T12:54:56.947Z,3.33
2023-03-30T12:58:08.832Z,3.03
2023-03-30T13:01:13.011Z,6.32
2023-03-30T13:04:02.295Z,4.43
2023-03-30T13:06:53.822Z,4.53
2023-03-30T13:09:56.947Z,3.88
2023-03-30T13:12:49.313Z,3.60
2023-03-30T13:15:43.387Z,3.53
2023-03-30T13:18:42.435Z,3.55
2023-03-30T13:21:49.490Z,3.60
2023-03-30T13:24:44.418Z,3.38
2023-03-30T13:27:35.933Z,3.58
2023-03-30T13:30:28.660Z,3.65
2023-03-30T13:33:21.590Z,3.13
2023-03-30T13:36:16.123Z,3.38
2023-03-30T13:39:09.492Z,4.10
2023-03-30T13:42:09.027Z,3.70
2023-03-30T13:45:03.751Z,3.97
2023-03-30T13:48:05.941Z,3.88
2023-03-30T13:50:58.755Z,3.60
2023-03-30T13:53:52.825Z,3.15
2023-03-30T13:56:44.976Z,3.00
2023-03-30T13:59:36.507Z,3.75
2023-03-30T14:02:28.086Z,3.75
2023-03-30T14:05:21.858Z,3.50
2023-03-30T14:08:12.825Z,3.00
2023-03-30T14:11:04.908Z,3.15
2023-03-30T14:13:54.378Z,3.05
2023-03-30T14:16:42.464Z,2.53
2023-03-30T14:19:34.302Z,3.65
2023-03-30T14:22:27.263Z,3.90
2023-03-30T14:25:27.554Z,3.33
2023-03-30T14:28:18.517Z,3.08
2023-03-30T14:31:14.130Z,2.58
2023-03-30T14:34:02.014Z,2.50
2023-03-30T14:36:49.932Z,3.08
2023-03-30T14:39:42.449Z,3.08
2023-03-30T14:42:34.723Z,3.22
2023-03-30T14:45:24.034Z,3.28
2023-03-30T14:48:22.050Z,6.88
2023-03-30T14:51:25.579Z,5.53
2023-03-30T14:54:17.809Z,5.57
2023-03-30T14:57:08.212Z,6.28
2023-03-30T14:59:59.999Z,5.57
2023-03-30T15:02:53.079Z,4.30
2023-03-30T15:05:42.865Z,7.05
2023-03-30T15:08:33.418Z,3.88
2023-03-30T15:11:24.398Z,3.58
2023-03-30T15:14:18.713Z,3.50
2023-03-30T15:17:10.262Z,6.75
2023-03-30T15:20:06.181Z,5.90
2023-03-30T15:22:55.738Z,5.68
2023-03-30T15:25:44.520Z,4.18
2023-03-30T15:28:36.440Z,5.45
2023-03-30T15:31:25.122Z,7.65
2023-03-30T15:34:17.416Z,5.82
2023-03-30T15:37:23.364Z,2.85
2023-03-30T15:40:33.585Z,2.85
2023-03-30T15:43:25.221Z,3.92
2023-03-30T15:46:16.891Z,3.63
2023-03-30T15:49:05.733Z,4.32
2023-03-30T15:51:59.130Z,5.13
2023-03-30T15:54:52.787Z,3.67
2023-03-30T15:57:47.121Z,4.65
2023-03-30T16:00:36.964Z,5.22
2023-03-30T16:03:39.339Z,3.17
2023-03-30T16:06:27.169Z,2.60
2023-03-30T16:09:15.888Z,2.40
2023-03-30T16:12:05.592Z,2.80
2023-03-30T16:14:54.089Z,2.97
2023-03-30T16:17:41.853Z,3.20
2023-03-30T16:20:32.432Z,3.30
2023-03-30T16:23:21.231Z,3.28
2023-03-30T16:26:09.786Z,2.10
2023-03-30T16:28:58.950Z,3.42
2023-03-30T16:31:46.993Z,3.60
2023-03-30T16:34:34.775Z,2.67
2023-03-30T16:37:22.729Z,2.60
2023-03-30T16:40:24.966Z,3.15
2023-03-30T16:43:12.999Z,2.70
2023-03-30T16:46:02.419Z,2.60
2023-03-30T16:48:50.356Z,2.90
2023-03-30T16:51:38.370Z,3.03
2023-03-30T16:57:17.105Z,5.28
2023-03-30T17:00:19.507Z,3.85
2023-03-30T17:03:09.106Z,4.15
2023-03-30T17:05:57.218Z,4.10
2023-03-30T17:08:45.852Z,2.38
2023-03-30T17:11:33.966Z,5.65
2023-03-30T17:14:23.218Z,2.55
2023-03-30T17:17:11.980Z,3.58
2023-03-30T17:20:15.286Z,4.13
2023-03-30T17:23:03.565Z,2.60
2023-03-30T17:25:53.692Z,2.65
2023-03-30T17:28:42.119Z,2.05
2023-03-30T17:31:30.591Z,2.75
2023-03-30T17:34:18.570Z,4.03
2023-03-30T17:37:07.869Z,3.90
2023-03-30T17:39:56.177Z,2.95
2023-03-30T17:42:45.046Z,1.50
2023-03-30T17:45:34.569Z,2.03
2023-03-30T17:48:23.288Z,3.15
2023-03-30T17:51:11.060Z,3.30
2023-03-30T17:54:00.430Z,3.17
2023-03-30T17:56:48.498Z,2.78
2023-03-30T17:59:36.471Z,2.00
2023-03-30T18:02:24.238Z,1.92
2023-03-30T18:05:12.348Z,2.65
2023-03-30T18:07:59.991Z,3.00
2023-03-30T18:10:51.535Z,2.40
2023-03-30T18:13:39.601Z,2.08
2023-03-30T18:16:27.942Z,2.63
2023-03-30T18:19:15.954Z,3.92
2023-03-30T18:22:03.813Z,6.35
2023-03-30T18:24:51.932Z,6.97
2023-03-30T18:27:42.413Z,5.72
2023-03-30T18:30:31.701Z,4.40
2023-03-30T18:33:19.872Z,3.00
2023-03-30T18:36:12.587Z,2.70
2023-03-30T18:41:49.055Z,2.55
2023-03-30T18:44:38.178Z,2.63
2023-03-30T18:47:26.474Z,2.03
2023-03-30T18:50:21.508Z,2.53
2023-03-30T18:53:10.615Z,2.85
2023-03-30T18:56:01.771Z,4.25
2023-03-30T18:58:50.371Z,4.53
2023-03-30T19:01:40.207Z,4.63
2023-03-30T19:04:29.412Z,4.00
2023-03-30T19:07:22.900Z,3.53
2023-03-30T19:10:13.890Z,2.50
2023-03-30T19:13:01.945Z,2.10
2023-03-30T19:15:51.024Z,2.00
2023-03-30T19:18:40.388Z,2.20
2023-03-30T19:21:28.329Z,2.00
2023-03-30T19:24:16.027Z,2.03
2023-03-30T19:27:06.018Z,1.80
2023-03-30T19:29:54.196Z,1.90
2023-03-30T19:32:43.007Z,2.25
2023-03-30T19:35:33.346Z,3.15
2023-03-30T19:38:21.450Z,6.38
2023-03-30T19:41:09.165Z,4.97
2023-03-30T19:43:57.076Z,4.60
2023-03-30T19:46:45.137Z,5.57
2023-03-30T19:49:33.280Z,3.30
2023-03-30T19:52:22.765Z,3.05
2023-03-30T19:55:12.161Z,2.97
2023-03-30T19:57:59.754Z,3.17
2023-03-30T20:00:49.591Z,2.70
2023-03-30T20:03:40.698Z,3.83
2023-03-30T20:06:28.360Z,3.10
2023-03-30T20:09:19.060Z,3.00
2023-03-30T20:12:07.830Z,3.10
2023-03-30T20:14:58.795Z,4.53
2023-03-30T20:17:46.719Z,3.75
2023-03-30T20:20:34.625Z,3.55
2023-03-30T20:23:22.337Z,3.67
2023-03-30T20:26:11.816Z,3.95
2023-03-30T20:29:00.782Z,5.20
2023-03-30T20:31:51.493Z,6.82
2023-03-30T20:34:40.431Z,3.42
2023-03-30T20:37:28.431Z,7.30
2023-03-30T20:40:16.455Z,4.05
2023-03-30T20:43:09.917Z,5.07
2023-03-30T20:46:02.922Z,3.38
2023-03-30T20:48:54.840Z,3.30
2023-03-30T20:51:45.103Z,2.65
2023-03-30T20:54:32.821Z,2.88
2023-03-30T20:57:21.578Z,6.50
2023-03-30T21:00:13.668Z,3.03
2023-03-30T21:03:01.909Z,5.20
2023-03-30T21:06:00.552Z,2.55
2023-03-30T21:08:48.620Z,4.65
2023-03-30T21:11:40.069Z,4.43
2023-03-30T21:14:27.714Z,3.50
2023-03-30T21:17:17.197Z,2.45
2023-03-30T21:20:07.482Z,2.63
2023-03-30T21:22:55.062Z,2.67
2023-03-30T21:25:43.355Z,2.33
2023-03-30T21:28:32.377Z,1.63
2023-03-30T21:31:20.430Z,1.98
2023-03-30T21:34:10.758Z,1.98
2023-03-30T21:36:59.471Z,2.20
2023-03-30T21:39:47.340Z,3.13
2023-03-30T21:42:36.248Z,1.70
2023-03-30T21:45:24.604Z,2.20
2023-03-30T21:48:14.448Z,2.45
2023-03-30T21:51:05.455Z,2.13
2023-03-30T21:53:54.291Z,2.30
2023-03-30T21:56:42.028Z,2.20
2023-03-30T21:59:30.369Z,2.40
2023-03-30T22:02:18.368Z,5.30
2023-03-30T22:05:07.037Z,3.75
2023-03-30T22:07:56.138Z,2.58
2023-03-30T22:10:44.725Z,3.47
2023-03-30T22:13:33.665Z,2.53
2023-03-30T22:16:23.905Z,2.13
2023-03-30T22:19:11.610Z,1.55
2023-03-30T22:21:59.749Z,2.22
2023-03-30T22:24:48.822Z,3.28
2023-03-30T22:27:36.971Z,3.85
2023-03-30T22:30:24.662Z,1.90
2023-03-30T22:33:13.028Z,2.10
2023-03-30T22:36:03.060Z,2.35
2023-03-30T22:38:52.465Z,3.65
2023-03-30T22:41:41.884Z,2.97
2023-03-30T22:44:29.667Z,3.20
2023-03-30T22:47:17.506Z,3.35
2023-03-30T22:50:06.006Z,3.53
2023-03-30T22:52:54.221Z,1.75
2023-03-30T22:55:42.003Z,3.13
2023-03-30T22:58:31.300Z,2.92
2023-03-30T23:01:19.628Z,3.00
2023-03-30T23:04:08.040Z,3.25
2023-03-30T23:06:56.097Z,3.13
2023-03-30T23:09:47.258Z,3.33
2023-03-30T23:12:35.219Z,3.13
2023-03-30T23:15:24.045Z,3.10
2023-03-30T23:18:12.466Z,2.97
2023-03-30T23:21:06.010Z,2.95
2023-03-30T23:23:54.160Z,2.63
2023-03-30T23:26:42.081Z,2.20
2023-03-30T23:29:30.048Z,1.88
2023-03-30T23:32:19.064Z,2.17
2023-03-30T23:35:07.927Z,2.08
2023-03-30T23:37:55.633Z,2.17
2023-03-30T23:40:43.738Z,2.95
2023-03-30T23:43:31.607Z,2.75
2023-03-30T23:46:19.807Z,2.22
2023-03-30T23:49:09.379Z,1.90
2023-03-30T23:51:57.478Z,1.67
2023-03-30T23:54:45.305Z,1.40
2023-03-30T23:57:33.175Z,1.55
